Ashaway, Rhode Island
Current Conditions -  °F | °C
As of 10:53 PM on Saturday 25 Oct 2014 (Local Time) from KWST Reporting Station
Clear Clear  
Wind Chill: 61°   Ceiling: Unl
Heat Index: 61°   Visibility: 10mi
Dew Point: 49°   Wind: 10mph
Humidity: 64%   Direction: 230°SW
Pressure: 29.57"   Gusts: NA
Location:  41.43°N, 71.79°W
Report Text: KWST 260253Z AUTO 23009KT 10SM CLR 16/09 A2957 RMK AO2 SLP013 T01610094 57019
Loading
Personal Weather Stations






























Interactive Weather Map
Tropical Storm Tracking
New forecast layout! Learn more

10-Day Weather Forecast

Advertisements
Track Severe Weather on mobile